Time;durP1;ratioP1;P1;durP2;ratioP2;P2;SDS_P1;SDS_P2;PMS_P1;PMS_P2;Temp;Humidity;BMP_temperature;BMP_pressure;BME280_temperature;BME280_humidity;BME280_pressure;Samples;Min_cycle;Max_cycle;Signal;HPM_P1;HPM_P2
2023/04/03 00:00:54;;;;;;;13.10;11.77;;;-0.10;99.90;;;;;;2612875;54;20493;-71
2023/04/03 00:03:20;;;;;;;14.07;11.20;;;-0.10;99.90;;;;;;2613720;39;20585;-70
2023/04/03 00:09:07;;;;;;;13.83;11.80;;;-0.10;99.90;;;;;;2613506;54;20158;-71
2023/04/03 00:14:55;;;;;;;13.73;12.23;;;-0.30;99.90;;;;;;2614762;54;20208;-71
2023/04/03 00:20:43;;;;;;;13.63;12.03;;;-0.30;99.90;;;;;;2615302;39;20529;-70
2023/04/03 00:26:30;;;;;;;14.47;11.40;;;-0.30;99.90;;;;;;2614639;54;20391;-71
2023/04/03 00:32:18;;;;;;;20.00;11.33;;;-0.40;99.90;;;;;;2614591;54;20146;-70
2023/04/03 00:38:06;;;;;;;12.10;10.90;;;-0.60;99.90;;;;;;2614211;54;20354;-70
2023/04/03 00:43:54;;;;;;;12.13;10.90;;;-0.70;99.90;;;;;;2614676;54;20153;-70
2023/04/03 00:49:42;;;;;;;16.73;12.37;;;-0.70;99.90;;;;;;2614245;54;20881;-71
2023/04/03 00:55:31;;;;;;;15.17;11.50;;;-0.70;99.90;;;;;;2614039;54;20367;-71
2023/04/03 01:05:24;;;;;;;15.37;13.33;;;-0.70;99.90;;;;;;2613078;54;21105;-69
2023/04/03 01:11:12;;;;;;;15.17;12.03;;;-0.80;99.90;;;;;;2614407;54;20399;-70
2023/04/03 01:17:00;;;;;;;13.60;11.00;;;-0.80;99.90;;;;;;2614583;54;20122;-69
2023/04/03 01:22:57;;;;;;;14.37;12.10;;;-0.90;99.90;;;;;;2614334;39;20245;-68
2023/04/03 01:28:44;;;;;;;15.20;12.50;;;-0.60;99.90;;;;;;2614094;54;20487;-69
2023/04/03 01:34:32;;;;;;;15.47;11.23;;;-0.30;99.90;;;;;;2614952;54;20362;-70
2023/04/03 01:40:20;;;;;;;14.97;11.00;;;-0.30;99.90;;;;;;2613162;54;20123;-69
2023/04/03 01:46:08;;;;;;;12.60;10.70;;;0.10;99.90;;;;;;2614212;54;20164;-69
2023/04/03 01:51:55;;;;;;;18.87;11.47;;;0.20;99.90;;;;;;2614189;39;20879;-69
2023/04/03 01:57:43;;;;;;;12.50;9.97;;;0.20;99.90;;;;;;2614137;54;20629;-69
2023/04/03 02:00:54;;;;;;;13.93;11.37;;;0.20;99.90;;;;;;2614270;54;20502;-69
2023/04/03 02:03:20;;;;;;;16.17;10.50;;;0.10;99.90;;;;;;2614629;54;20222;-69
2023/04/03 02:09:08;;;;;;;12.97;10.13;;;-0.20;99.90;;;;;;2613122;54;20350;-69
2023/04/03 02:14:55;;;;;;;11.17;9.93;;;-0.50;99.90;;;;;;2614557;54;20669;-69
2023/04/03 02:20:43;;;;;;;13.13;9.80;;;-0.60;99.90;;;;;;2614060;54;20167;-69
2023/04/03 02:26:31;;;;;;;11.87;10.53;;;-0.80;99.90;;;;;;2614032;54;20151;-69
2023/04/03 02:32:19;;;;;;;12.17;10.20;;;-0.90;99.90;;;;;;2613822;54;20656;-70
2023/04/03 02:38:06;;;;;;;12.33;10.17;;;-0.90;99.90;;;;;;2613881;54;20184;-69
2023/04/03 02:43:54;;;;;;;12.30;9.97;;;-0.70;99.90;;;;;;2614252;54;20185;-69
2023/04/03 02:49:44;;;;;;;8.47;7.67;;;-0.40;99.90;;;;;;2613804;54;20739;-69
2023/04/03 02:55:32;;;;;;;9.43;7.80;;;0.00;99.90;;;;;;2614354;54;20411;-76
2023/04/03 03:05:26;;;;;;;11.50;7.77;;;0.10;99.90;;;;;;2613680;54;20422;-69
2023/04/03 03:11:14;;;;;;;7.07;5.97;;;0.30;99.90;;;;;;2613801;54;20371;-69
2023/04/03 03:17:02;;;;;;;7.10;5.93;;;0.40;99.90;;;;;;2613997;54;20379;-69
2023/04/03 03:22:49;;;;;;;10.07;5.60;;;0.70;99.90;;;;;;2612668;54;20159;-70
2023/04/03 03:28:38;;;;;;;6.70;5.83;;;0.60;99.90;;;;;;2613884;54;20654;-69
2023/04/03 03:34:26;;;;;;;6.90;5.30;;;0.70;99.90;;;;;;2614211;54;20383;-69
2023/04/03 03:40:14;;;;;;;10.63;5.67;;;0.70;99.90;;;;;;2613531;54;20126;-69
2023/04/03 03:46:02;;;;;;;10.43;4.87;;;0.60;99.90;;;;;;2613981;54;20145;-69
2023/04/03 03:51:50;;;;;;;10.90;4.87;;;0.60;99.90;;;;;;2614560;54;20154;-70
2023/04/03 03:57:38;;;;;;;7.20;5.30;;;0.80;99.90;;;;;;2614752;54;20545;-69
2023/04/03 04:00:55;;;;;;;10.30;5.77;;;0.70;99.90;;;;;;2614752;54;20392;-69
2023/04/03 04:03:20;;;;;;;8.00;5.37;;;0.70;99.90;;;;;;2612811;54;20416;-69
2023/04/03 04:09:09;;;;;;;7.23;4.80;;;0.80;99.90;;;;;;2613733;54;20118;-71
2023/04/03 04:14:57;;;;;;;7.40;5.70;;;0.70;99.90;;;;;;2614647;54;21072;-68
2023/04/03 04:20:46;;;;;;;7.90;5.77;;;0.60;99.90;;;;;;2614402;54;20142;-69
2023/04/03 04:26:33;;;;;;;11.30;5.37;;;0.60;99.90;;;;;;2613691;54;20390;-69
2023/04/03 04:32:21;;;;;;;10.60;5.00;;;0.50;99.90;;;;;;2614451;54;20123;-69
2023/04/03 04:38:08;;;;;;;5.87;5.37;;;0.40;99.90;;;;;;2614376;54;20679;-69
2023/04/03 04:43:56;;;;;;;5.90;5.10;;;0.40;99.90;;;;;;2613104;54;20145;-69
2023/04/03 04:49:44;;;;;;;16.20;5.83;;;0.50;99.90;;;;;;2613117;54;20143;-69
2023/04/03 04:55:31;;;;;;;6.53;5.47;;;0.30;99.90;;;;;;2614466;54;20411;-69
2023/04/03 05:11:09;;;;;;;22.70;6.20;;;0.20;99.90;;;;;;2613557;54;20442;-73
2023/04/03 05:16:57;;;;;;;10.73;5.70;;;0.10;99.90;;;;;;2612783;54;20134;-70
2023/04/03 05:22:45;;;;;;;6.60;6.00;;;0.20;99.90;;;;;;2611775;39;20535;-72
2023/04/03 05:28:34;;;;;;;7.40;6.50;;;0.30;99.90;;;;;;2613075;54;20145;-69
2023/04/03 05:34:22;;;;;;;13.73;6.83;;;0.30;99.90;;;;;;2610222;54;20770;-69
2023/04/03 05:40:09;;;;;;;8.87;7.87;;;0.40;99.90;;;;;;2610771;54;20653;-69
2023/04/03 05:43:13;;;;;;;9.83;6.83;;;0.60;99.90;;;;;;2609139;54;20478;-68
2023/04/03 05:45:38;;;;;;;9.33;6.40;;;0.70;99.90;;;;;;2609038;54;20431;-76
2023/04/03 05:51:31;;;;;;;9.90;6.23;;;0.90;99.90;;;;;;2611043;54;20126;-76
2023/04/03 05:57:19;;;;;;;8.43;6.70;;;1.90;99.90;;;;;;2612593;54;20342;-75
2023/04/03 06:00:22;;;;;;;13.00;7.30;;;2.10;99.90;;;;;;2610569;54;20359;-75
2023/04/03 06:13:07;;;;;;;9.63;7.80;;;2.00;99.90;;;;;;2611770;54;20418;-75
2023/04/03 06:18:55;;;;;;;15.17;8.10;;;2.00;99.90;;;;;;2610960;54;20399;-75
2023/04/03 06:24:43;;;;;;;15.80;8.20;;;2.60;99.90;;;;;;2612095;54;20383;-75
2023/04/03 06:30:31;;;;;;;13.53;8.57;;;3.70;99.90;;;;;;2611594;54;20640;-75
2023/04/03 06:36:20;;;;;;;9.70;8.80;;;4.00;99.90;;;;;;2612954;54;20130;-75
2023/04/03 06:42:08;;;;;;;10.17;9.27;;;4.10;99.90;;;;;;2610276;54;20395;-75
2023/04/03 06:47:56;;;;;;;11.50;9.37;;;4.60;97.40;;;;;;2611289;54;20205;-75
2023/04/03 06:53:45;;;;;;;10.93;9.93;;;5.40;89.60;;;;;;2609512;54;20122;-75
2023/04/03 06:59:33;;;;;;;9.43;8.67;;;5.10;67.30;;;;;;2609973;54;20427;-75
2023/04/03 07:08:44;;;;;;;11.23;10.47;;;5.30;55.40;;;;;;2611513;54;20423;-75
2023/04/03 07:14:31;;;;;;;12.93;11.53;;;5.60;48.60;;;;;;2612519;54;20419;-75
2023/04/03 07:20:19;;;;;;;10.30;9.50;;;5.80;44.80;;;;;;2612119;54;20126;-74
2023/04/03 07:26:08;;;;;;;11.40;10.63;;;5.80;41.60;;;;;;2614302;54;20121;-75
2023/04/03 07:31:56;;;;;;;12.30;11.07;;;6.10;40.70;;;;;;2614314;54;20753;-75
2023/04/03 07:37:44;;;;;;;10.80;10.10;;;6.10;36.00;;;;;;2612982;54;20430;-70
2023/04/03 07:43:32;;;;;;;11.47;10.77;;;6.70;32.90;;;;;;2614332;54;20151;-69
2023/04/03 07:49:22;;;;;;;11.10;10.33;;;6.40;33.10;;;;;;2614308;54;20371;-69
2023/04/03 07:55:10;;;;;;;12.13;10.80;;;6.50;29.10;;;;;;2614278;54;20639;-70
2023/04/03 08:00:57;;;;;;;11.43;10.93;;;7.20;26.60;;;;;;2612750;39;20541;-70
2023/04/03 08:06:56;;;;;;;12.07;11.07;;;7.70;25.70;;;;;;2610800;47;20135;-70
2023/04/03 08:12:46;;;;;;;11.53;10.93;;;7.60;22.40;;;;;;2611563;54;20131;-70
2023/04/03 08:18:34;;;;;;;10.80;10.30;;;7.20;21.70;;;;;;2611091;39;20563;-70
2023/04/03 08:24:21;;;;;;;10.93;10.23;;;7.70;20.60;;;;;;2612470;54;20183;-69
2023/04/03 08:30:08;;;;;;;11.37;10.77;;;7.40;20.90;;;;;;2612550;54;20707;-71
2023/04/03 08:35:55;;;;;;;10.77;10.17;;;7.50;20.30;;;;;;2612142;54;20416;-71
2023/04/03 08:41:46;;;;;;;12.37;11.37;;;7.60;19.20;;;;;;2612265;54;20148;-69
2023/04/03 08:47:43;;;;;;;11.57;10.80;;;8.00;17.30;;;;;;2612986;54;20488;-71
2023/04/03 08:53:35;;;;;;;11.47;10.40;;;8.30;11.60;;;;;;2612874;46;20544;-70
2023/04/03 08:59:27;;;;;;;11.03;10.23;;;8.60;10.40;;;;;;2613431;54;20391;-70
2023/04/03 09:15:29;;;;;;;10.83;10.33;;;8.30;1.00;;;;;;2611180;54;21058;-70
2023/04/03 09:27:43;;;;;;;12.70;12.07;;;8.50;1.00;;;;;;2610073;54;20367;-69
2023/04/03 09:33:30;;;;;;;12.30;11.60;;;9.10;1.00;;;;;;2610195;54;20363;-74
2023/04/03 09:39:24;;;;;;;12.50;12.00;;;9.90;1.00;;;;;;2612637;54;20229;-75
2023/04/03 09:51:48;;;;;;;11.07;10.47;;;9.70;1.00;;;;;;2614213;54;20391;-74
2023/04/03 09:57:36;;;;;;;10.73;10.23;;;8.90;1.00;;;;;;2613905;54;20415;-75
2023/04/03 10:03:29;;;;;;;10.63;10.03;;;8.90;1.00;;;;;;2614082;54;20122;-74
2023/04/03 10:09:30;;;;;;;11.30;10.70;;;9.20;1.00;;;;;;2613833;54;20478;-75
2023/04/03 10:12:33;;;;;;;12.13;11.37;;;9.40;1.00;;;;;;2613797;54;20410;-74
2023/04/03 10:38:17;;;;;;;10.93;10.43;;;9.70;1.00;;;;;;2614196;54;20435;-75
2023/04/03 10:57:39;;;;;;;11.70;11.10;;;10.30;1.00;;;;;;2611902;46;20482;-75
2023/04/03 11:03:32;;;;;;;11.70;11.20;;;10.80;1.00;;;;;;2612563;54;20439;-74
2023/04/03 11:09:26;;;;;;;12.70;12.00;;;10.60;1.00;;;;;;2610925;54;20454;-73
2023/04/03 11:12:34;;;;;;;12.10;11.27;;;11.10;1.00;;;;;;2609315;54;20499;-73
2023/04/03 11:18:31;;;;;;;11.40;10.90;;;10.80;1.00;;;;;;2610116;39;20836;-74
2023/04/03 11:40:50;;;;;;;12.40;11.70;;;9.90;1.00;;;;;;2612716;54;20446;-74
2023/04/03 11:46:53;;;;;;;11.63;11.07;;;10.90;1.00;;;;;;2613691;54;20399;-74
2023/04/03 11:52:42;;;;;;;12.70;12.00;;;11.10;1.00;;;;;;2612766;39;20494;-74
2023/04/03 11:58:33;;;;;;;13.37;12.57;;;11.60;1.00;;;;;;2607992;54;20422;-74
2023/04/03 12:04:25;;;;;;;11.97;11.37;;;10.50;1.00;;;;;;2610321;54;20407;-74
2023/04/03 12:10:17;;;;;;;12.00;11.40;;;11.00;1.00;;;;;;2610576;54;20449;-73
2023/04/03 12:16:07;;;;;;;13.80;12.90;;;10.80;1.00;;;;;;2614197;54;20391;-74
2023/04/03 12:21:57;;;;;;;12.97;12.07;;;11.60;1.00;;;;;;2614305;54;20496;-74
2023/04/03 12:27:45;;;;;;;12.63;11.87;;;11.70;1.00;;;;;;2613934;54;20404;-73
2023/04/03 12:40:21;;;;;;;12.30;11.70;;;11.80;1.00;;;;;;2612800;54;20917;-74
2023/04/03 12:46:08;;;;;;;12.50;11.80;;;11.40;1.00;;;;;;2613621;39;20741;-73
2023/04/03 12:51:56;;;;;;;11.80;11.20;;;11.50;1.00;;;;;;2614006;54;20223;-74
2023/04/03 12:57:44;;;;;;;13.57;12.70;;;10.60;1.00;;;;;;2613644;54;20251;-73
2023/04/03 13:03:31;;;;;;;11.80;11.30;;;10.90;1.00;;;;;;2612273;54;20386;-74
2023/04/03 13:19:17;;;;;;;13.27;12.47;;;12.00;1.00;;;;;;2613352;54;20363;-74
2023/04/03 13:25:08;;;;;;;12.80;12.20;;;11.60;1.00;;;;;;2613450;54;20536;-73
2023/04/03 13:28:01;;;;;;;12.60;12.00;;;11.80;1.00;;;;;;2613113;54;20487;-74
2023/04/03 13:30:29;;;;;;;13.03;12.43;;;11.40;1.00;;;;;;2607098;54;20414;-73
2023/04/03 13:36:21;;;;;;;12.40;11.80;;;11.80;1.00;;;;;;2607476;54;20479;-71
2023/04/03 13:42:31;;;;;;;12.90;12.20;;;11.70;1.00;;;;;;2604440;54;20944;-72
2023/04/03 13:48:22;;;;;;;12.40;11.90;;;12.00;1.00;;;;;;2606630;54;20399;-73
2023/04/03 14:07:15;;;;;;;12.37;11.73;;;13.00;1.00;;;;;;2608398;54;20355;-74
2023/04/03 14:13:03;;;;;;;12.63;11.90;;;12.50;1.00;;;;;;2610171;31;20883;-73
2023/04/03 14:18:52;;;;;;;12.37;11.77;;;13.30;1.00;;;;;;2609731;54;20471;-74
2023/04/03 14:24:40;;;;;;;13.27;12.40;;;12.70;1.00;;;;;;2611012;54;20399;-73
2023/04/03 14:30:33;;;;;;;13.17;12.37;;;12.50;1.00;;;;;;2612674;54;20391;-73
2023/04/03 14:36:25;;;;;;;14.30;13.10;;;11.40;1.00;;;;;;2612125;39;21524;-73
2023/04/03 14:42:16;;;;;;;15.27;14.13;;;11.10;1.00;;;;;;2613010;54;20518;-74
2023/04/03 14:48:06;;;;;;;12.50;11.90;;;10.50;1.00;;;;;;2613276;54;21035;-73
2023/04/03 14:53:55;;;;;;;14.37;13.20;;;11.30;1.00;;;;;;2613140;54;20385;-73
2023/04/03 14:59:45;;;;;;;14.97;14.10;;;10.80;1.00;;;;;;2612250;54;20394;-74
2023/04/03 15:05:34;;;;;;;12.23;11.70;;;10.40;1.00;;;;;;2613369;54;20366;-74
2023/04/03 15:11:22;;;;;;;13.67;12.70;;;10.50;1.00;;;;;;2612716;54;20399;-74
2023/04/03 15:17:16;;;;;;;11.97;11.37;;;10.50;1.00;;;;;;2609731;54;20133;-74
2023/04/03 15:23:04;;;;;;;12.67;12.10;;;10.40;1.00;;;;;;2612708;54;20475;-73
2023/04/03 15:28:52;;;;;;;12.67;11.97;;;10.70;1.00;;;;;;2613109;39;20998;-73
2023/04/03 15:34:40;;;;;;;12.33;11.70;;;10.30;1.00;;;;;;2611341;54;20154;-74
2023/04/03 15:40:28;;;;;;;12.90;12.30;;;10.50;1.00;;;;;;2610085;54;20414;-74
2023/04/03 15:46:15;;;;;;;12.10;11.30;;;10.10;1.00;;;;;;2611072;54;20158;-70
2023/04/03 15:52:03;;;;;;;12.40;11.80;;;10.60;1.00;;;;;;2614523;54;20142;-69
2023/04/03 15:57:52;;;;;;;13.27;12.53;;;10.70;1.00;;;;;;2610951;54;20200;-68
2023/04/03 16:03:44;;;;;;;13.97;13.00;;;11.20;1.00;;;;;;2610654;54;20387;-70
2023/04/03 16:12:54;;;;;;;19.67;14.17;;;11.90;1.00;;;;;;2610970;39;22029;-69
2023/04/03 16:18:42;;;;;;;15.73;14.07;;;10.60;1.00;;;;;;2612785;39;20232;-69
2023/04/03 16:24:30;;;;;;;12.20;11.40;;;10.30;1.00;;;;;;2610683;54;20138;-69
2023/04/03 16:30:18;;;;;;;12.37;11.53;;;11.00;1.00;;;;;;2611115;54;20154;-70
2023/04/03 16:36:06;;;;;;;13.07;12.20;;;10.90;1.00;;;;;;2610817;54;20127;-69
2023/04/03 16:41:54;;;;;;;13.43;12.70;;;10.70;1.00;;;;;;2611185;54;20849;-69
2023/04/03 16:47:41;;;;;;;12.70;11.70;;;10.40;1.00;;;;;;2610735;39;20557;-69
2023/04/03 16:53:29;;;;;;;12.83;12.23;;;9.80;1.00;;;;;;2610209;54;20169;-69
2023/04/03 16:59:17;;;;;;;13.13;12.33;;;10.20;1.00;;;;;;2610173;54;20147;-70
2023/04/03 17:05:05;;;;;;;13.67;12.83;;;10.00;1.00;;;;;;2610450;54;20159;-70
2023/04/03 17:08:19;;;;;;;13.10;12.50;;;9.70;1.00;;;;;;2609478;54;20498;-69
2023/04/03 17:10:45;;;;;;;14.20;13.50;;;9.30;1.00;;;;;;2609610;39;20885;-70
2023/04/03 17:16:35;;;;;;;14.30;13.07;;;9.60;1.00;;;;;;2613788;54;20143;-68
2023/04/03 17:22:23;;;;;;;14.47;13.50;;;7.90;1.00;;;;;;2609104;54;20391;-70
2023/04/03 17:28:11;;;;;;;12.60;11.70;;;7.70;1.00;;;;;;2609635;54;20793;-70
2023/04/03 17:34:01;;;;;;;13.90;12.90;;;7.50;1.00;;;;;;2609559;54;20138;-70
2023/04/03 17:39:49;;;;;;;13.47;12.67;;;7.20;1.00;;;;;;2610959;54;20354;-69
2023/04/03 17:45:37;;;;;;;14.20;13.40;;;7.10;1.00;;;;;;2609738;39;20622;-70
2023/04/03 17:51:25;;;;;;;13.47;12.60;;;7.00;1.00;;;;;;2610302;54;20411;-70
2023/04/03 17:57:13;;;;;;;13.30;12.50;;;6.80;1.00;;;;;;2610397;54;20408;-70
2023/04/03 18:03:02;;;;;;;12.87;12.17;;;6.70;1.00;;;;;;2610925;39;20244;-70
2023/04/03 18:19:13;;;;;;;12.67;11.97;;;6.40;1.00;;;;;;2608856;54;20496;-71
2023/04/03 18:25:00;;;;;;;12.80;11.87;;;6.40;1.00;;;;;;2606789;54;20138;-70
2023/04/03 18:30:48;;;;;;;12.40;11.80;;;6.10;1.00;;;;;;2605524;54;20138;-71
2023/04/03 18:36:35;;;;;;;12.57;11.47;;;6.20;1.00;;;;;;2602294;54;20387;-70
2023/04/03 18:42:25;;;;;;;18.67;13.30;;;6.00;1.00;;;;;;2609191;54;20129;-70
2023/04/03 18:48:11;;;;;;;13.83;12.97;;;5.90;1.00;;;;;;2609121;54;20394;-70
2023/04/03 18:53:59;;;;;;;12.80;12.10;;;5.60;1.00;;;;;;2610637;54;20147;-69
2023/04/03 18:59:47;;;;;;;13.20;12.60;;;5.50;1.00;;;;;;2610585;54;20129;-71
2023/04/03 19:05:36;;;;;;;14.27;13.13;;;5.50;1.00;;;;;;2608152;54;20131;-70
2023/04/03 19:08:20;;;;;;;14.30;13.50;;;5.40;1.00;;;;;;2607476;54;21017;-69
2023/04/03 19:10:45;;;;;;;14.37;13.33;;;5.30;1.00;;;;;;2608064;54;20893;-70
2023/04/03 19:16:33;;;;;;;14.20;13.40;;;5.30;1.00;;;;;;2610557;54;20114;-71
2023/04/03 19:22:20;;;;;;;15.10;13.90;;;5.00;1.00;;;;;;2613979;54;20151;-71
2023/04/03 19:28:08;;;;;;;15.10;13.87;;;5.20;1.00;;;;;;2612144;54;20139;-71
2023/04/03 19:33:56;;;;;;;13.20;11.90;;;5.00;1.00;;;;;;2614491;54;20129;-70
2023/04/03 19:39:45;;;;;;;13.27;12.47;;;4.80;1.00;;;;;;2614414;54;20656;-70
2023/04/03 19:45:32;;;;;;;14.27;13.47;;;4.90;1.00;;;;;;2614939;54;20411;-70
2023/04/03 19:51:20;;;;;;;14.17;13.07;;;4.90;1.00;;;;;;2614828;54;20162;-70
2023/04/03 19:57:08;;;;;;;14.07;13.13;;;4.70;1.00;;;;;;2614573;39;20542;-69
2023/04/03 20:02:56;;;;;;;13.00;12.23;;;4.70;1.10;;;;;;2614053;54;20390;-70
2023/04/03 20:12:49;;;;;;;14.07;13.23;;;4.50;3.30;;;;;;2614154;54;20361;-70
2023/04/03 20:18:37;;;;;;;14.10;12.97;;;4.40;4.20;;;;;;2613730;54;20430;-71
2023/04/03 20:24:27;;;;;;;13.47;12.37;;;4.30;5.10;;;;;;2611862;54;20126;-70
2023/04/03 20:30:14;;;;;;;13.27;12.57;;;4.20;6.00;;;;;;2611062;54;20475;-71
2023/04/03 20:36:03;;;;;;;14.00;12.97;;;4.20;8.10;;;;;;2610731;54;20167;-70
2023/04/03 20:41:51;;;;;;;13.40;12.60;;;4.20;8.30;;;;;;2610475;54;20540;-71
2023/04/03 20:47:38;;;;;;;13.70;12.60;;;4.20;8.40;;;;;;2610090;54;20171;-70
2023/04/03 20:53:27;;;;;;;14.63;13.10;;;4.30;6.10;;;;;;2610717;54;20154;-70
2023/04/03 20:59:15;;;;;;;13.37;12.37;;;4.10;6.80;;;;;;2608939;54;20407;-70
2023/04/03 21:05:04;;;;;;;13.60;12.67;;;4.10;8.70;;;;;;2609064;54;20375;-70
2023/04/03 21:08:19;;;;;;;13.33;12.63;;;4.10;7.80;;;;;;2609290;54;20938;-71
2023/04/03 21:17:29;;;;;;;13.77;12.97;;;4.00;7.70;;;;;;2608310;54;20404;-70
2023/04/03 21:23:16;;;;;;;15.67;13.70;;;4.00;7.90;;;;;;2608795;54;20235;-70
2023/04/03 21:29:08;;;;;;;14.27;13.30;;;4.00;7.90;;;;;;2609451;54;20134;-70
2023/04/03 21:34:56;;;;;;;14.50;13.67;;;3.70;10.70;;;;;;2608966;54;20480;-70
2023/04/03 21:40:45;;;;;;;13.80;12.80;;;3.70;11.60;;;;;;2609216;54;20483;-70
2023/04/03 21:46:33;;;;;;;14.80;14.00;;;3.60;13.00;;;;;;2609265;39;20850;-71
2023/04/03 21:52:21;;;;;;;15.27;14.13;;;3.30;14.40;;;;;;2609124;54;20150;-71
2023/04/03 21:58:08;;;;;;;14.57;13.73;;;3.10;17.60;;;;;;2610611;54;20167;-71
2023/04/03 22:03:57;;;;;;;14.90;13.80;;;3.00;20.40;;;;;;2610634;54;20243;-70
2023/04/03 22:13:07;;;;;;;13.80;12.80;;;2.60;26.80;;;;;;2610288;54;20419;-70
2023/04/03 22:18:58;;;;;;;13.70;12.70;;;2.40;32.40;;;;;;2610897;39;20545;-70
2023/04/03 22:24:45;;;;;;;15.83;14.20;;;2.20;40.10;;;;;;2610118;54;20964;-70
2023/04/03 22:30:33;;;;;;;14.53;13.23;;;1.80;54.50;;;;;;2610837;54;20173;-69
2023/04/03 22:36:20;;;;;;;13.60;12.70;;;1.50;77.10;;;;;;2609352;54;20823;-70
2023/04/03 22:42:08;;;;;;;13.30;12.30;;;1.40;94.60;;;;;;2610836;31;20606;-69
2023/04/03 22:47:57;;;;;;;12.00;11.00;;;1.20;97.30;;;;;;2608553;54;20170;-70
2023/04/03 22:53:45;;;;;;;13.40;12.33;;;1.10;99.90;;;;;;2609796;39;20745;-70
2023/04/03 22:59:33;;;;;;;14.00;13.00;;;1.10;99.90;;;;;;2609556;54;20359;-70
2023/04/03 23:05:20;;;;;;;14.23;13.13;;;0.90;99.90;;;;;;2610347;54;20250;-69
2023/04/03 23:11:18;;;;;;;13.13;12.13;;;0.50;99.90;;;;;;2608384;47;20143;-70
2023/04/03 23:17:06;;;;;;;16.50;14.80;;;0.40;99.90;;;;;;2608151;39;20499;-69
2023/04/03 23:22:54;;;;;;;19.83;17.80;;;0.30;99.90;;;;;;2610083;39;20566;-70
2023/04/03 23:28:41;;;;;;;17.93;16.30;;;0.30;99.90;;;;;;2609849;54;20171;-70
2023/04/03 23:34:27;;;;;;;19.90;15.93;;;0.30;99.90;;;;;;2609907;54;20173;-70
2023/04/03 23:37:30;;;;;;;20.13;16.80;;;0.30;99.90;;;;;;2609873;54;20403;-70
2023/04/03 23:39:56;;;;;;;18.70;16.80;;;0.10;99.90;;;;;;2609882;47;20231;-69
2023/04/03 23:45:46;;;;;;;20.80;16.50;;;0.00;99.90;;;;;;2610460;54;20721;-70
2023/04/03 23:51:33;;;;;;;23.90;20.03;;;-0.20;99.90;;;;;;2610307;54;20474;-70
2023/04/03 23:57:21;;;;;;;22.77;16.93;;;-0.20;99.90;;;;;;2610960;31;20598;-70
